sensor_id;sensor_type;location;lat;lon;timestamp;P1;durP1;ratioP1;P2;durP2;ratioP2
46755;SDS011;32506;52.826;-1.192;2024-01-15T00:00:37;3.95;;;1.73;;
46755;SDS011;32506;52.826;-1.192;2024-01-15T00:03:05;2.58;;;1.58;;
46755;SDS011;32506;52.826;-1.192;2024-01-15T00:05:31;4.82;;;1.65;;
46755;SDS011;32506;52.826;-1.192;2024-01-15T00:07:56;6.30;;;1.80;;
46755;SDS011;32506;52.826;-1.192;2024-01-15T00:10:22;4.93;;;1.80;;
46755;SDS011;32506;52.826;-1.192;2024-01-15T00:12:48;6.63;;;1.95;;
46755;SDS011;32506;52.826;-1.192;2024-01-15T00:15:13;4.00;;;1.95;;
46755;SDS011;32506;52.826;-1.192;2024-01-15T00:17:39;3.33;;;1.77;;
46755;SDS011;32506;52.826;-1.192;2024-01-15T00:20:05;3.58;;;1.48;;
46755;SDS011;32506;52.826;-1.192;2024-01-15T00:22:31;4.22;;;2.00;;
46755;SDS011;32506;52.826;-1.192;2024-01-15T00:24:57;6.28;;;2.47;;
46755;SDS011;32506;52.826;-1.192;2024-01-15T00:27:22;3.83;;;1.95;;
46755;SDS011;32506;52.826;-1.192;2024-01-15T00:29:49;3.95;;;1.73;;
46755;SDS011;32506;52.826;-1.192;2024-01-15T00:32:15;5.18;;;2.17;;
46755;SDS011;32506;52.826;-1.192;2024-01-15T00:34:41;4.65;;;2.03;;
46755;SDS011;32506;52.826;-1.192;2024-01-15T00:37:06;6.03;;;2.10;;
46755;SDS011;32506;52.826;-1.192;2024-01-15T00:39:32;5.32;;;1.95;;
46755;SDS011;32506;52.826;-1.192;2024-01-15T00:41:57;4.20;;;1.92;;
46755;SDS011;32506;52.826;-1.192;2024-01-15T00:44:23;4.70;;;2.38;;
46755;SDS011;32506;52.826;-1.192;2024-01-15T00:46:48;3.90;;;1.85;;
46755;SDS011;32506;52.826;-1.192;2024-01-15T00:49:14;5.95;;;2.17;;
46755;SDS011;32506;52.826;-1.192;2024-01-15T00:51:39;4.95;;;2.00;;
46755;SDS011;32506;52.826;-1.192;2024-01-15T00:54:05;6.05;;;1.95;;
46755;SDS011;32506;52.826;-1.192;2024-01-15T00:56:31;4.50;;;2.00;;
46755;SDS011;32506;52.826;-1.192;2024-01-15T00:58:56;3.65;;;2.08;;
46755;SDS011;32506;52.826;-1.192;2024-01-15T01:01:21;3.35;;;1.60;;
46755;SDS011;32506;52.826;-1.192;2024-01-15T01:03:47;3.42;;;1.77;;
46755;SDS011;32506;52.826;-1.192;2024-01-15T01:06:12;3.20;;;1.55;;
46755;SDS011;32506;52.826;-1.192;2024-01-15T01:08:39;5.20;;;2.13;;
46755;SDS011;32506;52.826;-1.192;2024-01-15T01:11:05;4.20;;;2.13;;
46755;SDS011;32506;52.826;-1.192;2024-01-15T01:13:32;5.40;;;2.10;;
46755;SDS011;32506;52.826;-1.192;2024-01-15T01:15:57;5.40;;;2.00;;
46755;SDS011;32506;52.826;-1.192;2024-01-15T01:18:23;4.07;;;2.40;;
46755;SDS011;32506;52.826;-1.192;2024-01-15T01:20:48;3.45;;;1.75;;
46755;SDS011;32506;52.826;-1.192;2024-01-15T01:23:14;4.68;;;1.70;;
46755;SDS011;32506;52.826;-1.192;2024-01-15T01:25:39;5.38;;;1.90;;
46755;SDS011;32506;52.826;-1.192;2024-01-15T01:28:05;3.97;;;1.67;;
46755;SDS011;32506;52.826;-1.192;2024-01-15T01:30:30;4.15;;;1.73;;
46755;SDS011;32506;52.826;-1.192;2024-01-15T01:32:56;3.67;;;1.70;;
46755;SDS011;32506;52.826;-1.192;2024-01-15T01:35:22;4.88;;;1.77;;
46755;SDS011;32506;52.826;-1.192;2024-01-15T01:37:47;4.53;;;1.48;;
46755;SDS011;32506;52.826;-1.192;2024-01-15T01:40:13;4.88;;;2.30;;
46755;SDS011;32506;52.826;-1.192;2024-01-15T01:42:38;5.15;;;1.85;;
46755;SDS011;32506;52.826;-1.192;2024-01-15T01:45:03;3.88;;;1.75;;
46755;SDS011;32506;52.826;-1.192;2024-01-15T01:47:29;3.63;;;1.58;;
46755;SDS011;32506;52.826;-1.192;2024-01-15T01:49:55;4.68;;;2.05;;
46755;SDS011;32506;52.826;-1.192;2024-01-15T01:52:21;3.50;;;1.85;;
46755;SDS011;32506;52.826;-1.192;2024-01-15T01:54:47;3.05;;;1.40;;
46755;SDS011;32506;52.826;-1.192;2024-01-15T01:57:12;5.00;;;2.05;;
46755;SDS011;32506;52.826;-1.192;2024-01-15T01:59:40;5.28;;;2.15;;
46755;SDS011;32506;52.826;-1.192;2024-01-15T02:02:06;3.42;;;1.45;;
46755;SDS011;32506;52.826;-1.192;2024-01-15T02:04:31;3.42;;;1.73;;
46755;SDS011;32506;52.826;-1.192;2024-01-15T02:06:59;2.60;;;1.60;;
46755;SDS011;32506;52.826;-1.192;2024-01-15T02:09:25;3.55;;;1.52;;
46755;SDS011;32506;52.826;-1.192;2024-01-15T02:11:50;3.75;;;1.83;;
46755;SDS011;32506;52.826;-1.192;2024-01-15T02:14:16;5.03;;;1.90;;
46755;SDS011;32506;52.826;-1.192;2024-01-15T02:16:42;2.33;;;1.50;;
46755;SDS011;32506;52.826;-1.192;2024-01-15T02:19:07;3.60;;;1.60;;
46755;SDS011;32506;52.826;-1.192;2024-01-15T02:21:39;4.63;;;2.08;;
46755;SDS011;32506;52.826;-1.192;2024-01-15T02:24:04;2.58;;;1.27;;
46755;SDS011;32506;52.826;-1.192;2024-01-15T02:26:30;2.33;;;1.42;;
46755;SDS011;32506;52.826;-1.192;2024-01-15T02:28:56;4.40;;;1.92;;
46755;SDS011;32506;52.826;-1.192;2024-01-15T02:31:21;3.13;;;1.67;;
46755;SDS011;32506;52.826;-1.192;2024-01-15T02:33:46;4.45;;;1.67;;
46755;SDS011;32506;52.826;-1.192;2024-01-15T02:36:12;2.97;;;1.55;;
46755;SDS011;32506;52.826;-1.192;2024-01-15T02:38:37;3.40;;;1.50;;
46755;SDS011;32506;52.826;-1.192;2024-01-15T02:41:03;3.33;;;1.55;;
46755;SDS011;32506;52.826;-1.192;2024-01-15T02:43:29;3.92;;;2.25;;
46755;SDS011;32506;52.826;-1.192;2024-01-15T02:45:54;2.95;;;1.77;;
46755;SDS011;32506;52.826;-1.192;2024-01-15T02:48:20;3.03;;;1.77;;
46755;SDS011;32506;52.826;-1.192;2024-01-15T02:50:45;2.95;;;1.88;;
46755;SDS011;32506;52.826;-1.192;2024-01-15T02:53:10;3.45;;;1.85;;
46755;SDS011;32506;52.826;-1.192;2024-01-15T02:55:36;3.33;;;1.52;;
46755;SDS011;32506;52.826;-1.192;2024-01-15T02:58:01;4.40;;;1.92;;
46755;SDS011;32506;52.826;-1.192;2024-01-15T03:00:28;3.70;;;1.90;;
46755;SDS011;32506;52.826;-1.192;2024-01-15T03:02:54;3.53;;;1.67;;
46755;SDS011;32506;52.826;-1.192;2024-01-15T03:05:19;3.65;;;2.10;;
46755;SDS011;32506;52.826;-1.192;2024-01-15T03:07:45;3.38;;;1.73;;
46755;SDS011;32506;52.826;-1.192;2024-01-15T03:10:10;4.30;;;2.10;;
46755;SDS011;32506;52.826;-1.192;2024-01-15T03:12:36;4.15;;;1.80;;
46755;SDS011;32506;52.826;-1.192;2024-01-15T03:15:01;4.35;;;2.20;;
46755;SDS011;32506;52.826;-1.192;2024-01-15T03:17:27;5.35;;;2.05;;
46755;SDS011;32506;52.826;-1.192;2024-01-15T03:19:53;4.88;;;2.22;;
46755;SDS011;32506;52.826;-1.192;2024-01-15T03:22:18;4.35;;;1.88;;
46755;SDS011;32506;52.826;-1.192;2024-01-15T03:24:44;5.25;;;1.90;;
46755;SDS011;32506;52.826;-1.192;2024-01-15T03:27:09;4.70;;;1.95;;
46755;SDS011;32506;52.826;-1.192;2024-01-15T03:29:35;3.28;;;1.70;;
46755;SDS011;32506;52.826;-1.192;2024-01-15T03:32:00;4.15;;;1.95;;
46755;SDS011;32506;52.826;-1.192;2024-01-15T03:34:26;3.22;;;1.73;;
46755;SDS011;32506;52.826;-1.192;2024-01-15T03:36:51;5.63;;;2.20;;
46755;SDS011;32506;52.826;-1.192;2024-01-15T03:39:17;3.75;;;1.90;;
46755;SDS011;32506;52.826;-1.192;2024-01-15T03:41:42;5.60;;;2.25;;
46755;SDS011;32506;52.826;-1.192;2024-01-15T03:44:07;4.60;;;2.15;;
46755;SDS011;32506;52.826;-1.192;2024-01-15T03:46:33;4.38;;;1.85;;
46755;SDS011;32506;52.826;-1.192;2024-01-15T03:48:58;4.03;;;2.03;;
46755;SDS011;32506;52.826;-1.192;2024-01-15T03:51:24;3.38;;;1.98;;
46755;SDS011;32506;52.826;-1.192;2024-01-15T03:53:49;5.45;;;2.20;;
46755;SDS011;32506;52.826;-1.192;2024-01-15T03:56:15;3.83;;;1.90;;
46755;SDS011;32506;52.826;-1.192;2024-01-15T03:58:40;5.15;;;1.90;;
46755;SDS011;32506;52.826;-1.192;2024-01-15T04:01:09;3.97;;;2.30;;
46755;SDS011;32506;52.826;-1.192;2024-01-15T04:03:35;4.18;;;2.10;;
46755;SDS011;32506;52.826;-1.192;2024-01-15T04:06:01;2.80;;;1.83;;
46755;SDS011;32506;52.826;-1.192;2024-01-15T04:08:26;3.92;;;1.92;;
46755;SDS011;32506;52.826;-1.192;2024-01-15T04:10:52;4.97;;;2.08;;
46755;SDS011;32506;52.826;-1.192;2024-01-15T04:13:17;3.88;;;1.80;;
46755;SDS011;32506;52.826;-1.192;2024-01-15T04:15:43;4.43;;;1.73;;
46755;SDS011;32506;52.826;-1.192;2024-01-15T04:18:08;3.00;;;1.83;;
46755;SDS011;32506;52.826;-1.192;2024-01-15T04:20:33;5.25;;;2.00;;
46755;SDS011;32506;52.826;-1.192;2024-01-15T04:22:59;3.35;;;1.38;;
46755;SDS011;32506;52.826;-1.192;2024-01-15T04:25:24;3.78;;;1.98;;
46755;SDS011;32506;52.826;-1.192;2024-01-15T04:27:50;3.85;;;1.95;;
46755;SDS011;32506;52.826;-1.192;2024-01-15T04:30:15;4.25;;;1.58;;
46755;SDS011;32506;52.826;-1.192;2024-01-15T04:32:41;3.72;;;1.83;;
46755;SDS011;32506;52.826;-1.192;2024-01-15T04:35:06;3.33;;;1.80;;
46755;SDS011;32506;52.826;-1.192;2024-01-15T04:37:32;3.63;;;1.83;;
46755;SDS011;32506;52.826;-1.192;2024-01-15T04:39:57;3.70;;;1.75;;
46755;SDS011;32506;52.826;-1.192;2024-01-15T04:42:23;3.65;;;1.70;;
46755;SDS011;32506;52.826;-1.192;2024-01-15T04:44:48;4.00;;;1.52;;
46755;SDS011;32506;52.826;-1.192;2024-01-15T04:47:14;3.75;;;1.95;;
46755;SDS011;32506;52.826;-1.192;2024-01-15T04:49:39;4.90;;;2.20;;
46755;SDS011;32506;52.826;-1.192;2024-01-15T04:52:05;3.47;;;1.45;;
46755;SDS011;32506;52.826;-1.192;2024-01-15T04:54:30;4.28;;;2.22;;
46755;SDS011;32506;52.826;-1.192;2024-01-15T04:56:56;4.63;;;1.70;;
46755;SDS011;32506;52.826;-1.192;2024-01-15T04:59:21;4.57;;;1.77;;
46755;SDS011;32506;52.826;-1.192;2024-01-15T05:01:47;4.80;;;1.80;;
46755;SDS011;32506;52.826;-1.192;2024-01-15T05:04:13;2.65;;;1.50;;
46755;SDS011;32506;52.826;-1.192;2024-01-15T05:06:39;4.13;;;1.63;;
46755;SDS011;32506;52.826;-1.192;2024-01-15T05:09:04;3.47;;;1.73;;
46755;SDS011;32506;52.826;-1.192;2024-01-15T05:11:30;3.08;;;1.35;;
46755;SDS011;32506;52.826;-1.192;2024-01-15T05:13:55;3.65;;;1.48;;
46755;SDS011;32506;52.826;-1.192;2024-01-15T05:16:21;3.28;;;1.70;;
46755;SDS011;32506;52.826;-1.192;2024-01-15T05:18:46;2.90;;;1.35;;
46755;SDS011;32506;52.826;-1.192;2024-01-15T05:21:12;3.05;;;1.25;;
46755;SDS011;32506;52.826;-1.192;2024-01-15T05:23:37;2.88;;;1.60;;
46755;SDS011;32506;52.826;-1.192;2024-01-15T05:26:03;2.47;;;1.38;;
46755;SDS011;32506;52.826;-1.192;2024-01-15T05:28:29;2.50;;;1.17;;
46755;SDS011;32506;52.826;-1.192;2024-01-15T05:30:54;2.00;;;1.23;;
46755;SDS011;32506;52.826;-1.192;2024-01-15T05:33:21;3.10;;;1.45;;
46755;SDS011;32506;52.826;-1.192;2024-01-15T05:35:47;2.65;;;1.40;;
46755;SDS011;32506;52.826;-1.192;2024-01-15T05:38:12;3.45;;;1.95;;
46755;SDS011;32506;52.826;-1.192;2024-01-15T05:40:38;3.05;;;1.25;;
46755;SDS011;32506;52.826;-1.192;2024-01-15T05:43:03;2.30;;;1.30;;
46755;SDS011;32506;52.826;-1.192;2024-01-15T05:45:29;3.83;;;1.25;;
46755;SDS011;32506;52.826;-1.192;2024-01-15T05:47:55;2.15;;;1.17;;
46755;SDS011;32506;52.826;-1.192;2024-01-15T05:50:21;3.83;;;1.23;;
46755;SDS011;32506;52.826;-1.192;2024-01-15T05:52:47;2.33;;;0.90;;
46755;SDS011;32506;52.826;-1.192;2024-01-15T05:55:12;4.15;;;1.20;;
46755;SDS011;32506;52.826;-1.192;2024-01-15T05:57:38;2.50;;;1.02;;
46755;SDS011;32506;52.826;-1.192;2024-01-15T06:00:04;3.15;;;1.15;;
46755;SDS011;32506;52.826;-1.192;2024-01-15T06:02:30;1.48;;;0.80;;
46755;SDS011;32506;52.826;-1.192;2024-01-15T06:04:55;3.03;;;1.17;;
46755;SDS011;32506;52.826;-1.192;2024-01-15T06:07:20;2.15;;;0.90;;
46755;SDS011;32506;52.826;-1.192;2024-01-15T06:09:47;2.08;;;0.90;;
46755;SDS011;32506;52.826;-1.192;2024-01-15T06:12:13;1.33;;;0.80;;
46755;SDS011;32506;52.826;-1.192;2024-01-15T06:14:38;2.88;;;1.13;;
46755;SDS011;32506;52.826;-1.192;2024-01-15T06:17:04;3.08;;;1.00;;
46755;SDS011;32506;52.826;-1.192;2024-01-15T06:19:29;2.10;;;0.77;;
46755;SDS011;32506;52.826;-1.192;2024-01-15T06:21:55;1.90;;;0.82;;
46755;SDS011;32506;52.826;-1.192;2024-01-15T06:24:20;2.35;;;0.88;;
46755;SDS011;32506;52.826;-1.192;2024-01-15T06:26:49;2.58;;;0.77;;
46755;SDS011;32506;52.826;-1.192;2024-01-15T06:29:14;3.72;;;1.00;;
46755;SDS011;32506;52.826;-1.192;2024-01-15T06:31:39;2.10;;;0.90;;
46755;SDS011;32506;52.826;-1.192;2024-01-15T06:34:05;1.67;;;0.93;;
46755;SDS011;32506;52.826;-1.192;2024-01-15T06:36:30;3.22;;;1.10;;
46755;SDS011;32506;52.826;-1.192;2024-01-15T06:38:56;3.70;;;1.20;;
46755;SDS011;32506;52.826;-1.192;2024-01-15T06:41:21;1.67;;;1.08;;
46755;SDS011;32506;52.826;-1.192;2024-01-15T06:43:47;2.38;;;0.90;;
46755;SDS011;32506;52.826;-1.192;2024-01-15T06:46:19;3.10;;;1.15;;
46755;SDS011;32506;52.826;-1.192;2024-01-15T06:48:47;2.72;;;0.80;;
46755;SDS011;32506;52.826;-1.192;2024-01-15T06:51:13;1.75;;;0.82;;
46755;SDS011;32506;52.826;-1.192;2024-01-15T06:53:39;3.08;;;1.17;;
46755;SDS011;32506;52.826;-1.192;2024-01-15T06:56:04;1.63;;;0.70;;
46755;SDS011;32506;52.826;-1.192;2024-01-15T06:58:33;3.50;;;0.60;;
46755;SDS011;32506;52.826;-1.192;2024-01-15T07:00:59;3.20;;;0.88;;
46755;SDS011;32506;52.826;-1.192;2024-01-15T07:03:25;3.80;;;0.82;;
46755;SDS011;32506;52.826;-1.192;2024-01-15T07:05:50;2.03;;;0.70;;
46755;SDS011;32506;52.826;-1.192;2024-01-15T07:08:16;2.97;;;0.75;;
46755;SDS011;32506;52.826;-1.192;2024-01-15T07:10:41;2.50;;;0.80;;
46755;SDS011;32506;52.826;-1.192;2024-01-15T07:13:06;2.63;;;0.82;;
46755;SDS011;32506;52.826;-1.192;2024-01-15T07:15:32;2.25;;;0.70;;
46755;SDS011;32506;52.826;-1.192;2024-01-15T07:17:57;1.90;;;0.80;;
46755;SDS011;32506;52.826;-1.192;2024-01-15T07:20:23;3.00;;;0.60;;
46755;SDS011;32506;52.826;-1.192;2024-01-15T07:22:48;2.45;;;0.60;;
46755;SDS011;32506;52.826;-1.192;2024-01-15T07:25:15;4.43;;;0.90;;
46755;SDS011;32506;52.826;-1.192;2024-01-15T07:27:41;1.42;;;0.43;;
46755;SDS011;32506;52.826;-1.192;2024-01-15T07:30:09;2.15;;;0.68;;
46755;SDS011;32506;52.826;-1.192;2024-01-15T07:32:35;2.28;;;0.70;;
46755;SDS011;32506;52.826;-1.192;2024-01-15T07:35:01;2.25;;;0.63;;
46755;SDS011;32506;52.826;-1.192;2024-01-15T07:37:26;1.77;;;0.50;;
46755;SDS011;32506;52.826;-1.192;2024-01-15T07:39:52;3.70;;;0.60;;
46755;SDS011;32506;52.826;-1.192;2024-01-15T07:42:17;2.13;;;0.50;;
46755;SDS011;32506;52.826;-1.192;2024-01-15T07:44:43;2.33;;;0.55;;
46755;SDS011;32506;52.826;-1.192;2024-01-15T07:47:08;2.65;;;0.70;;
46755;SDS011;32506;52.826;-1.192;2024-01-15T07:49:34;2.60;;;0.75;;
46755;SDS011;32506;52.826;-1.192;2024-01-15T07:52:00;0.85;;;0.47;;
46755;SDS011;32506;52.826;-1.192;2024-01-15T07:54:25;2.13;;;0.63;;
46755;SDS011;32506;52.826;-1.192;2024-01-15T07:59:20;2.00;;;0.63;;
46755;SDS011;32506;52.826;-1.192;2024-01-15T08:01:45;2.22;;;0.68;;
46755;SDS011;32506;52.826;-1.192;2024-01-15T08:04:12;2.20;;;0.85;;
46755;SDS011;32506;52.826;-1.192;2024-01-15T08:06:38;3.78;;;0.90;;
46755;SDS011;32506;52.826;-1.192;2024-01-15T08:09:03;1.65;;;0.60;;
46755;SDS011;32506;52.826;-1.192;2024-01-15T08:11:29;3.20;;;1.65;;
46755;SDS011;32506;52.826;-1.192;2024-01-15T08:13:55;1.42;;;1.05;;
46755;SDS011;32506;52.826;-1.192;2024-01-15T08:16:21;2.65;;;0.68;;
46755;SDS011;32506;52.826;-1.192;2024-01-15T08:18:46;2.08;;;0.85;;
46755;SDS011;32506;52.826;-1.192;2024-01-15T08:21:12;4.10;;;0.70;;
46755;SDS011;32506;52.826;-1.192;2024-01-15T08:23:38;1.38;;;0.45;;
46755;SDS011;32506;52.826;-1.192;2024-01-15T08:26:04;1.83;;;0.50;;
46755;SDS011;32506;52.826;-1.192;2024-01-15T08:28:29;1.27;;;0.50;;
46755;SDS011;32506;52.826;-1.192;2024-01-15T08:30:55;1.48;;;0.45;;
46755;SDS011;32506;52.826;-1.192;2024-01-15T08:33:21;2.65;;;0.60;;
46755;SDS011;32506;52.826;-1.192;2024-01-15T08:35:46;1.48;;;0.40;;
46755;SDS011;32506;52.826;-1.192;2024-01-15T08:38:12;1.60;;;0.47;;
46755;SDS011;32506;52.826;-1.192;2024-01-15T08:40:37;1.98;;;0.70;;
46755;SDS011;32506;52.826;-1.192;2024-01-15T08:43:02;3.40;;;0.60;;
46755;SDS011;32506;52.826;-1.192;2024-01-15T08:45:28;1.23;;;0.50;;
46755;SDS011;32506;52.826;-1.192;2024-01-15T08:47:53;3.53;;;0.60;;
46755;SDS011;32506;52.826;-1.192;2024-01-15T08:50:19;2.67;;;0.50;;
46755;SDS011;32506;52.826;-1.192;2024-01-15T08:52:44;2.72;;;0.60;;
46755;SDS011;32506;52.826;-1.192;2024-01-15T08:55:11;2.97;;;0.43;;
46755;SDS011;32506;52.826;-1.192;2024-01-15T08:57:38;2.50;;;0.30;;
46755;SDS011;32506;52.826;-1.192;2024-01-15T09:00:03;1.27;;;0.70;;
46755;SDS011;32506;52.826;-1.192;2024-01-15T09:02:33;1.55;;;0.50;;
46755;SDS011;32506;52.826;-1.192;2024-01-15T09:04:59;3.33;;;0.47;;
46755;SDS011;32506;52.826;-1.192;2024-01-15T09:07:24;0.70;;;0.35;;
46755;SDS011;32506;52.826;-1.192;2024-01-15T09:09:51;3.30;;;0.60;;
46755;SDS011;32506;52.826;-1.192;2024-01-15T09:12:16;1.58;;;0.50;;
46755;SDS011;32506;52.826;-1.192;2024-01-15T09:14:43;0.40;;;0.30;;
46755;SDS011;32506;52.826;-1.192;2024-01-15T09:17:09;2.47;;;0.57;;
46755;SDS011;32506;52.826;-1.192;2024-01-15T09:19:35;3.40;;;0.50;;
46755;SDS011;32506;52.826;-1.192;2024-01-15T09:22:00;3.05;;;0.63;;
46755;SDS011;32506;52.826;-1.192;2024-01-15T09:24:25;3.45;;;0.88;;
46755;SDS011;32506;52.826;-1.192;2024-01-15T09:26:51;1.05;;;0.38;;
46755;SDS011;32506;52.826;-1.192;2024-01-15T09:29:16;3.25;;;0.77;;
46755;SDS011;32506;52.826;-1.192;2024-01-15T09:31:43;5.72;;;1.23;;
46755;SDS011;32506;52.826;-1.192;2024-01-15T09:34:08;1.25;;;0.40;;
46755;SDS011;32506;52.826;-1.192;2024-01-15T09:36:38;3.38;;;0.55;;
46755;SDS011;32506;52.826;-1.192;2024-01-15T09:39:06;3.42;;;0.60;;
46755;SDS011;32506;52.826;-1.192;2024-01-15T09:41:33;4.75;;;0.75;;
46755;SDS011;32506;52.826;-1.192;2024-01-15T09:44:03;2.20;;;0.50;;
46755;SDS011;32506;52.826;-1.192;2024-01-15T09:46:29;3.13;;;0.80;;
46755;SDS011;32506;52.826;-1.192;2024-01-15T09:48:56;2.05;;;0.75;;
46755;SDS011;32506;52.826;-1.192;2024-01-15T09:51:22;2.80;;;1.05;;
46755;SDS011;32506;52.826;-1.192;2024-01-15T09:53:49;3.70;;;0.63;;
46755;SDS011;32506;52.826;-1.192;2024-01-15T09:56:15;4.85;;;1.13;;
46755;SDS011;32506;52.826;-1.192;2024-01-15T09:58:41;1.38;;;0.55;;
46755;SDS011;32506;52.826;-1.192;2024-01-15T10:01:07;2.20;;;1.00;;
46755;SDS011;32506;52.826;-1.192;2024-01-15T10:03:33;2.58;;;0.73;;
46755;SDS011;32506;52.826;-1.192;2024-01-15T10:05:59;1.60;;;0.57;;
46755;SDS011;32506;52.826;-1.192;2024-01-15T10:08:25;2.30;;;0.63;;
46755;SDS011;32506;52.826;-1.192;2024-01-15T10:10:51;1.67;;;0.50;;
46755;SDS011;32506;52.826;-1.192;2024-01-15T10:13:17;5.65;;;1.10;;
46755;SDS011;32506;52.826;-1.192;2024-01-15T10:15:45;6.15;;;2.35;;
46755;SDS011;32506;52.826;-1.192;2024-01-15T10:18:12;7.25;;;3.13;;
46755;SDS011;32506;52.826;-1.192;2024-01-15T10:20:37;10.80;;;4.95;;
46755;SDS011;32506;52.826;-1.192;2024-01-15T10:23:03;15.70;;;6.97;;
46755;SDS011;32506;52.826;-1.192;2024-01-15T10:25:29;15.73;;;6.07;;
46755;SDS011;32506;52.826;-1.192;2024-01-15T10:28:02;13.02;;;6.03;;
46755;SDS011;32506;52.826;-1.192;2024-01-15T10:30:29;17.58;;;6.25;;
46755;SDS011;32506;52.826;-1.192;2024-01-15T10:32:58;13.52;;;6.70;;
46755;SDS011;32506;52.826;-1.192;2024-01-15T10:35:28;14.68;;;6.82;;
46755;SDS011;32506;52.826;-1.192;2024-01-15T10:37:55;9.82;;;5.25;;
46755;SDS011;32506;52.826;-1.192;2024-01-15T10:40:21;13.23;;;5.95;;
46755;SDS011;32506;52.826;-1.192;2024-01-15T10:42:46;12.48;;;5.32;;
46755;SDS011;32506;52.826;-1.192;2024-01-15T10:45:13;14.25;;;5.50;;
46755;SDS011;32506;52.826;-1.192;2024-01-15T10:47:39;10.07;;;5.15;;
46755;SDS011;32506;52.826;-1.192;2024-01-15T10:50:05;10.80;;;5.18;;
46755;SDS011;32506;52.826;-1.192;2024-01-15T10:52:35;13.35;;;5.43;;
46755;SDS011;32506;52.826;-1.192;2024-01-15T10:55:03;12.23;;;5.47;;
46755;SDS011;32506;52.826;-1.192;2024-01-15T10:57:29;11.93;;;5.22;;
46755;SDS011;32506;52.826;-1.192;2024-01-15T10:59:55;13.63;;;5.32;;
46755;SDS011;32506;52.826;-1.192;2024-01-15T11:02:21;11.40;;;4.88;;
46755;SDS011;32506;52.826;-1.192;2024-01-15T11:04:47;13.52;;;5.20;;
46755;SDS011;32506;52.826;-1.192;2024-01-15T11:07:13;10.50;;;4.97;;
46755;SDS011;32506;52.826;-1.192;2024-01-15T11:09:38;10.50;;;4.72;;
46755;SDS011;32506;52.826;-1.192;2024-01-15T11:12:09;11.07;;;5.07;;
46755;SDS011;32506;52.826;-1.192;2024-01-15T11:14:40;11.50;;;4.73;;
46755;SDS011;32506;52.826;-1.192;2024-01-15T11:17:09;14.35;;;5.03;;
46755;SDS011;32506;52.826;-1.192;2024-01-15T11:19:35;9.77;;;4.88;;
46755;SDS011;32506;52.826;-1.192;2024-01-15T11:22:05;8.70;;;4.05;;
46755;SDS011;32506;52.826;-1.192;2024-01-15T11:27:04;8.80;;;4.15;;
46755;SDS011;32506;52.826;-1.192;2024-01-15T11:29:31;6.68;;;3.15;;
46755;SDS011;32506;52.826;-1.192;2024-01-15T11:32:00;8.15;;;3.47;;
46755;SDS011;32506;52.826;-1.192;2024-01-15T11:40:17;6.15;;;2.25;;
46755;SDS011;32506;52.826;-1.192;2024-01-15T11:42:44;6.53;;;2.75;;
46755;SDS011;32506;52.826;-1.192;2024-01-15T11:45:10;7.05;;;3.03;;
46755;SDS011;32506;52.826;-1.192;2024-01-15T11:50:32;6.03;;;2.58;;
46755;SDS011;32506;52.826;-1.192;2024-01-15T11:52:59;6.07;;;1.95;;
46755;SDS011;32506;52.826;-1.192;2024-01-15T11:55:27;5.13;;;2.05;;
46755;SDS011;32506;52.826;-1.192;2024-01-15T11:57:54;4.88;;;2.08;;
46755;SDS011;32506;52.826;-1.192;2024-01-15T12:00:21;5.45;;;1.67;;
46755;SDS011;32506;52.826;-1.192;2024-01-15T12:02:48;4.20;;;1.67;;
46755;SDS011;32506;52.826;-1.192;2024-01-15T12:05:16;5.22;;;1.77;;
46755;SDS011;32506;52.826;-1.192;2024-01-15T12:07:43;5.63;;;1.83;;
46755;SDS011;32506;52.826;-1.192;2024-01-15T12:10:13;4.30;;;1.58;;
46755;SDS011;32506;52.826;-1.192;2024-01-15T12:15:17;2.83;;;1.20;;
46755;SDS011;32506;52.826;-1.192;2024-01-15T12:17:42;3.75;;;1.40;;
46755;SDS011;32506;52.826;-1.192;2024-01-15T12:20:08;3.88;;;1.27;;
46755;SDS011;32506;52.826;-1.192;2024-01-15T12:22:35;5.28;;;2.25;;
46755;SDS011;32506;52.826;-1.192;2024-01-15T12:25:00;3.45;;;1.77;;
46755;SDS011;32506;52.826;-1.192;2024-01-15T12:27:26;2.92;;;1.15;;
46755;SDS011;32506;52.826;-1.192;2024-01-15T12:29:54;2.70;;;1.10;;
46755;SDS011;32506;52.826;-1.192;2024-01-15T12:32:20;3.83;;;1.10;;
46755;SDS011;32506;52.826;-1.192;2024-01-15T12:34:48;5.85;;;1.58;;
46755;SDS011;32506;52.826;-1.192;2024-01-15T12:37:14;3.28;;;1.23;;
46755;SDS011;32506;52.826;-1.192;2024-01-15T12:39:42;3.00;;;1.05;;
46755;SDS011;32506;52.826;-1.192;2024-01-15T12:42:08;1.85;;;0.85;;
46755;SDS011;32506;52.826;-1.192;2024-01-15T12:44:35;2.63;;;0.80;;
46755;SDS011;32506;52.826;-1.192;2024-01-15T12:47:03;4.13;;;1.02;;
46755;SDS011;32506;52.826;-1.192;2024-01-15T12:49:29;3.00;;;1.58;;
46755;SDS011;32506;52.826;-1.192;2024-01-15T12:51:56;2.40;;;0.93;;
46755;SDS011;32506;52.826;-1.192;2024-01-15T12:54:23;2.65;;;0.90;;
46755;SDS011;32506;52.826;-1.192;2024-01-15T12:56:49;2.25;;;0.98;;
46755;SDS011;32506;52.826;-1.192;2024-01-15T12:59:15;2.33;;;0.60;;
46755;SDS011;32506;52.826;-1.192;2024-01-15T13:01:40;1.98;;;0.63;;
46755;SDS011;32506;52.826;-1.192;2024-01-15T13:04:06;1.90;;;0.88;;
46755;SDS011;32506;52.826;-1.192;2024-01-15T13:06:34;2.80;;;0.60;;
46755;SDS011;32506;52.826;-1.192;2024-01-15T13:09:00;2.17;;;0.60;;
46755;SDS011;32506;52.826;-1.192;2024-01-15T13:11:26;2.05;;;0.73;;
46755;SDS011;32506;52.826;-1.192;2024-01-15T13:13:52;2.03;;;0.90;;
46755;SDS011;32506;52.826;-1.192;2024-01-15T13:16:17;2.30;;;0.85;;
46755;SDS011;32506;52.826;-1.192;2024-01-15T13:18:45;2.83;;;0.88;;
46755;SDS011;32506;52.826;-1.192;2024-01-15T13:21:11;2.95;;;0.90;;
46755;SDS011;32506;52.826;-1.192;2024-01-15T13:23:37;1.95;;;0.60;;
46755;SDS011;32506;52.826;-1.192;2024-01-15T13:26:03;3.72;;;1.00;;
46755;SDS011;32506;52.826;-1.192;2024-01-15T13:28:30;3.40;;;1.20;;
46755;SDS011;32506;52.826;-1.192;2024-01-15T13:30:55;2.53;;;0.90;;
46755;SDS011;32506;52.826;-1.192;2024-01-15T13:33:21;2.60;;;0.85;;
46755;SDS011;32506;52.826;-1.192;2024-01-15T13:35:47;2.72;;;0.80;;
46755;SDS011;32506;52.826;-1.192;2024-01-15T13:38:15;3.30;;;0.82;;
46755;SDS011;32506;52.826;-1.192;2024-01-15T13:40:40;2.03;;;0.80;;
46755;SDS011;32506;52.826;-1.192;2024-01-15T13:43:06;2.35;;;0.98;;
46755;SDS011;32506;52.826;-1.192;2024-01-15T13:45:33;2.22;;;0.73;;
46755;SDS011;32506;52.826;-1.192;2024-01-15T13:48:00;2.22;;;0.73;;
46755;SDS011;32506;52.826;-1.192;2024-01-15T13:50:26;2.38;;;0.75;;
46755;SDS011;32506;52.826;-1.192;2024-01-15T13:52:52;2.17;;;0.80;;
46755;SDS011;32506;52.826;-1.192;2024-01-15T13:55:18;3.20;;;0.73;;
46755;SDS011;32506;52.826;-1.192;2024-01-15T13:57:43;3.58;;;0.90;;
46755;SDS011;32506;52.826;-1.192;2024-01-15T14:00:09;3.42;;;0.68;;
46755;SDS011;32506;52.826;-1.192;2024-01-15T14:02:37;2.60;;;0.90;;
46755;SDS011;32506;52.826;-1.192;2024-01-15T14:05:02;1.98;;;0.85;;
46755;SDS011;32506;52.826;-1.192;2024-01-15T14:07:28;2.53;;;0.68;;
46755;SDS011;32506;52.826;-1.192;2024-01-15T14:09:53;2.05;;;0.82;;
46755;SDS011;32506;52.826;-1.192;2024-01-15T14:12:19;2.00;;;0.70;;
46755;SDS011;32506;52.826;-1.192;2024-01-15T14:14:44;2.63;;;0.90;;
46755;SDS011;32506;52.826;-1.192;2024-01-15T14:17:10;1.95;;;0.73;;
46755;SDS011;32506;52.826;-1.192;2024-01-15T14:19:35;2.15;;;0.63;;
46755;SDS011;32506;52.826;-1.192;2024-01-15T14:22:01;2.53;;;0.80;;
46755;SDS011;32506;52.826;-1.192;2024-01-15T14:24:26;1.63;;;0.77;;
46755;SDS011;32506;52.826;-1.192;2024-01-15T14:26:51;1.48;;;0.50;;
46755;SDS011;32506;52.826;-1.192;2024-01-15T14:29:17;2.78;;;0.60;;
46755;SDS011;32506;52.826;-1.192;2024-01-15T14:31:45;3.25;;;0.90;;
46755;SDS011;32506;52.826;-1.192;2024-01-15T14:34:11;4.95;;;0.88;;
46755;SDS011;32506;52.826;-1.192;2024-01-15T14:36:37;1.80;;;0.57;;
46755;SDS011;32506;52.826;-1.192;2024-01-15T14:39:02;1.63;;;0.55;;
46755;SDS011;32506;52.826;-1.192;2024-01-15T14:41:28;1.30;;;0.63;;